Time;durP1;ratioP1;P1;durP2;ratioP2;P2;SDS_P1;SDS_P2;PMS_P1;PMS_P2;Temp;Humidity;BMP_temperature;BMP_pressure;BME280_temperature;BME280_humidity;BME280_pressure;Samples;Min_cycle;Max_cycle;Signal;HPM_P1;HPM_P2
2023/12/11 00:02:07;;;;;;;31.67;6.38;;;;;;;;;;4894439;29;20131;-73
2023/12/11 00:04:33;;;;;;;34.47;7.35;;;;;;;;;;4902911;29;20076;-73
2023/12/11 00:06:59;;;;;;;50.13;9.02;;;;;;;;;;4883928;29;20056;-73
2023/12/11 00:09:25;;;;;;;42.80;8.70;;;;;;;;;;4885273;29;20071;-72
2023/12/11 00:11:51;;;;;;;41.33;8.35;;;;;;;;;;4884755;29;20057;-73
2023/12/11 00:14:17;;;;;;;35.60;7.15;;;;;;;;;;4880072;29;20567;-73
2023/12/11 00:16:45;;;;;;;34.95;7.57;;;;;;;;;;4892574;29;20040;-73
2023/12/11 00:19:11;;;;;;;54.15;9.48;;;;;;;;;;4881417;29;20056;-72
2023/12/11 00:21:37;;;;;;;52.65;11.35;;;;;;;;;;4896041;29;20043;-73
2023/12/11 00:24:04;;;;;;;55.05;10.10;;;;;;;;;;4885875;29;20055;-73
2023/12/11 00:26:30;;;;;;;50.22;10.02;;;;;;;;;;4881119;29;20053;-73
2023/12/11 00:28:56;;;;;;;44.25;9.38;;;;;;;;;;4885312;29;20485;-73
2023/12/11 00:31:22;;;;;;;48.58;8.85;;;;;;;;;;4901530;29;20048;-73
2023/12/11 00:33:48;;;;;;;41.67;8.90;;;;;;;;;;4885426;29;20151;-73
2023/12/11 00:36:14;;;;;;;51.13;9.50;;;;;;;;;;4883610;29;20409;-73
2023/12/11 00:38:40;;;;;;;41.85;8.98;;;;;;;;;;4902938;29;20063;-73
2023/12/11 00:41:07;;;;;;;42.58;9.18;;;;;;;;;;4887091;29;20055;-73
2023/12/11 00:43:33;;;;;;;51.72;9.20;;;;;;;;;;4887745;29;20059;-73
2023/12/11 00:45:59;;;;;;;43.20;7.55;;;;;;;;;;4887336;29;20059;-73
2023/12/11 00:48:25;;;;;;;43.28;8.90;;;;;;;;;;4898181;29;20529;-73
2023/12/11 00:50:51;;;;;;;48.78;8.98;;;;;;;;;;4900594;29;20052;-73
2023/12/11 00:53:20;;;;;;;46.75;8.27;;;;;;;;;;4905836;29;20131;-73
2023/12/11 00:55:46;;;;;;;42.35;9.27;;;;;;;;;;4890754;29;20397;-73
2023/12/11 00:58:12;;;;;;;43.25;8.75;;;;;;;;;;4892231;29;20504;-73
2023/12/11 01:00:38;;;;;;;40.75;10.00;;;;;;;;;;4910378;29;20045;-73
2023/12/11 01:03:04;;;;;;;42.88;7.85;;;;;;;;;;4890783;29;20056;-73
2023/12/11 01:05:31;;;;;;;38.88;8.27;;;;;;;;;;4886711;29;20060;-73
2023/12/11 01:07:57;;;;;;;40.50;8.80;;;;;;;;;;4882152;29;20056;-73
2023/12/11 01:10:29;;;;;;;44.38;7.60;;;;;;;;;;4894119;29;20062;-72
2023/12/11 01:12:55;;;;;;;46.47;8.70;;;;;;;;;;4895279;29;20413;-72
2023/12/11 01:15:21;;;;;;;44.80;9.85;;;;;;;;;;4888869;29;20188;-72
2023/12/11 01:17:47;;;;;;;38.50;8.07;;;;;;;;;;4888915;29;20225;-72
2023/12/11 01:20:14;;;;;;;43.55;8.32;;;;;;;;;;4896177;29;20085;-73
2023/12/11 01:22:40;;;;;;;44.03;7.53;;;;;;;;;;4890991;29;20504;-73
2023/12/11 01:25:08;;;;;;;44.05;7.75;;;;;;;;;;4890279;29;20051;-73
2023/12/11 01:27:34;;;;;;;35.17;6.97;;;;;;;;;;4889981;29;20048;-73
2023/12/11 01:30:00;;;;;;;39.72;8.63;;;;;;;;;;4882723;29;20044;-73
2023/12/11 01:32:26;;;;;;;30.88;6.55;;;;;;;;;;4883766;29;20059;-73
2023/12/11 01:34:55;;;;;;;32.25;6.80;;;;;;;;;;4887135;29;20078;-73
2023/12/11 01:37:21;;;;;;;36.20;7.40;;;;;;;;;;4887108;29;20059;-73
2023/12/11 01:39:47;;;;;;;32.00;6.57;;;;;;;;;;4884217;29;20104;-73
2023/12/11 01:42:13;;;;;;;44.10;7.93;;;;;;;;;;4906493;29;20098;-72
2023/12/11 01:44:39;;;;;;;36.33;8.38;;;;;;;;;;4881650;29;20127;-73
2023/12/11 01:47:06;;;;;;;39.88;8.57;;;;;;;;;;4894344;29;20063;-72
2023/12/11 01:49:33;;;;;;;39.22;7.78;;;;;;;;;;4901787;29;20139;-73
2023/12/11 01:51:59;;;;;;;48.50;8.13;;;;;;;;;;4882349;29;20064;-73
2023/12/11 01:54:26;;;;;;;41.40;9.07;;;;;;;;;;4887320;29;20121;-73
2023/12/11 01:56:52;;;;;;;35.58;7.55;;;;;;;;;;4893678;29;20052;-73
2023/12/11 01:59:18;;;;;;;38.17;7.82;;;;;;;;;;4884191;29;20087;-72
2023/12/11 02:01:45;;;;;;;24.23;6.65;;;;;;;;;;4899549;29;20048;-72
2023/12/11 02:04:11;;;;;;;39.17;7.57;;;;;;;;;;4896684;29;20557;-73
2023/12/11 02:06:40;;;;;;;40.08;9.00;;;;;;;;;;4889614;29;20100;-73
2023/12/11 02:09:06;;;;;;;44.42;7.07;;;;;;;;;;4889966;29;20135;-73
2023/12/11 02:11:42;;;;;;;40.67;9.15;;;;;;;;;;4873105;29;20049;-73
2023/12/11 02:14:08;;;;;;;47.90;9.13;;;;;;;;;;4885217;29;20055;-73
2023/12/11 02:16:34;;;;;;;48.00;8.85;;;;;;;;;;4897018;29;20123;-73
2023/12/11 02:19:00;;;;;;;38.00;8.45;;;;;;;;;;4903103;29;20052;-72
2023/12/11 02:21:29;;;;;;;32.45;7.80;;;;;;;;;;4896829;29;20048;-72
2023/12/11 02:24:16;;;;;;;41.03;7.97;;;;;;;;;;4885410;29;20088;-72
2023/12/11 02:26:43;;;;;;;43.97;8.80;;;;;;;;;;4883715;29;20043;-73
2023/12/11 02:29:09;;;;;;;50.25;8.98;;;;;;;;;;4892492;29;20170;-73
2023/12/11 02:31:35;;;;;;;39.00;7.10;;;;;;;;;;4896591;29;20400;-73
2023/12/11 02:34:01;;;;;;;51.47;9.77;;;;;;;;;;4887492;29;20397;-73
2023/12/11 02:36:27;;;;;;;49.30;9.82;;;;;;;;;;4883127;29;20123;-72
2023/12/11 02:38:53;;;;;;;47.88;9.13;;;;;;;;;;4883742;29;20055;-73
2023/12/11 02:41:19;;;;;;;47.35;8.85;;;;;;;;;;4897057;29;20036;-72
2023/12/11 02:43:45;;;;;;;52.78;10.13;;;;;;;;;;4885363;29;20053;-73
2023/12/11 02:46:11;;;;;;;54.83;10.55;;;;;;;;;;4878815;29;20405;-72
2023/12/11 02:48:37;;;;;;;51.30;8.38;;;;;;;;;;4887418;29;20067;-72
2023/12/11 02:51:03;;;;;;;51.20;8.88;;;;;;;;;;4897018;29;20045;-73
2023/12/11 02:53:29;;;;;;;44.58;8.15;;;;;;;;;;4896902;29;20161;-72
2023/12/11 02:55:55;;;;;;;49.67;10.63;;;;;;;;;;4887904;29;20055;-72
2023/12/11 02:58:22;;;;;;;38.33;8.02;;;;;;;;;;4892256;29;20056;-72
2023/12/11 03:00:48;;;;;;;48.63;9.25;;;;;;;;;;4895303;29;20044;-72
2023/12/11 03:03:16;;;;;;;42.30;8.18;;;;;;;;;;4891631;29;20056;-73
2023/12/11 03:05:42;;;;;;;52.92;11.15;;;;;;;;;;4897635;29;20102;-73
2023/12/11 03:08:08;;;;;;;37.95;7.43;;;;;;;;;;4892498;29;20139;-73
2023/12/11 03:10:35;;;;;;;44.97;10.07;;;;;;;;;;4906147;29;20051;-73
2023/12/11 03:13:01;;;;;;;43.00;8.38;;;;;;;;;;4896034;29;20052;-73
2023/12/11 03:15:27;;;;;;;49.10;9.27;;;;;;;;;;4880977;29;20504;-72
2023/12/11 03:17:53;;;;;;;50.17;9.90;;;;;;;;;;4889140;29;20047;-73
2023/12/11 03:20:19;;;;;;;51.55;9.57;;;;;;;;;;4893370;29;20051;-73
2023/12/11 03:22:45;;;;;;;50.95;9.18;;;;;;;;;;4890072;29;20044;-73
2023/12/11 03:25:11;;;;;;;56.83;9.60;;;;;;;;;;4913015;29;20040;-72
2023/12/11 03:27:37;;;;;;;46.67;8.55;;;;;;;;;;4890252;29;20461;-73
2023/12/11 03:30:03;;;;;;;28.08;7.72;;;;;;;;;;4880130;29;20045;-73
2023/12/11 03:32:29;;;;;;;47.15;10.30;;;;;;;;;;4888806;29;20060;-72
2023/12/11 03:34:56;;;;;;;50.63;9.80;;;;;;;;;;4883165;29;20044;-72
2023/12/11 03:37:22;;;;;;;52.30;9.60;;;;;;;;;;4899954;29;20059;-72
2023/12/11 03:39:48;;;;;;;49.33;8.85;;;;;;;;;;4892221;29;20040;-72
2023/12/11 03:42:14;;;;;;;44.33;9.02;;;;;;;;;;4887624;29;20068;-72
2023/12/11 03:44:40;;;;;;;41.70;9.10;;;;;;;;;;4882025;29;20060;-72
2023/12/11 03:47:06;;;;;;;39.40;7.85;;;;;;;;;;4882027;29;20048;-73
2023/12/11 03:49:33;;;;;;;46.22;9.30;;;;;;;;;;4880071;29;20096;-73
2023/12/11 03:51:59;;;;;;;50.67;9.35;;;;;;;;;;4898877;29;20044;-72
2023/12/11 03:54:25;;;;;;;45.30;8.68;;;;;;;;;;4895276;29;20048;-72
2023/12/11 03:56:51;;;;;;;40.15;7.90;;;;;;;;;;4899052;29;20608;-72
2023/12/11 03:59:17;;;;;;;47.67;9.52;;;;;;;;;;4888885;29;20457;-73
2023/12/11 04:01:44;;;;;;;34.85;7.15;;;;;;;;;;4900721;29;20438;-73
2023/12/11 04:04:11;;;;;;;41.20;8.23;;;;;;;;;;4907716;29;20048;-73
2023/12/11 04:06:37;;;;;;;49.22;8.75;;;;;;;;;;4897355;29;20076;-73
2023/12/11 04:09:04;;;;;;;41.80;8.10;;;;;;;;;;4896721;29;20062;-72
2023/12/11 04:11:30;;;;;;;47.30;9.68;;;;;;;;;;4886683;29;20135;-73
2023/12/11 04:13:56;;;;;;;46.42;8.43;;;;;;;;;;4912359;29;20059;-72
2023/12/11 04:16:22;;;;;;;37.53;7.07;;;;;;;;;;4900619;29;20052;-73
2023/12/11 04:18:48;;;;;;;48.85;8.43;;;;;;;;;;4891444;29;20129;-72
2023/12/11 04:21:15;;;;;;;41.15;7.22;;;;;;;;;;4916372;29;20040;-73
2023/12/11 04:23:41;;;;;;;34.65;7.45;;;;;;;;;;4893987;29;20053;-73
2023/12/11 04:26:07;;;;;;;44.08;8.07;;;;;;;;;;4890499;29;20119;-73
2023/12/11 04:28:33;;;;;;;41.47;8.00;;;;;;;;;;4894003;29;20131;-73
2023/12/11 04:30:59;;;;;;;40.15;7.35;;;;;;;;;;4891642;29;20040;-73
2023/12/11 04:33:25;;;;;;;41.08;9.07;;;;;;;;;;4891699;29;20045;-72
2023/12/11 04:35:54;;;;;;;35.83;7.75;;;;;;;;;;4899024;29;20036;-73
2023/12/11 04:38:20;;;;;;;27.83;7.47;;;;;;;;;;4888249;29;20056;-72
2023/12/11 04:40:46;;;;;;;36.75;7.82;;;;;;;;;;4887829;29;20052;-72
2023/12/11 04:43:12;;;;;;;36.03;7.00;;;;;;;;;;4897845;29;20044;-72
2023/12/11 04:45:38;;;;;;;45.47;8.00;;;;;;;;;;4896860;29;20075;-73
2023/12/11 04:48:04;;;;;;;34.03;7.18;;;;;;;;;;4890002;29;20134;-73
2023/12/11 04:50:30;;;;;;;42.20;8.75;;;;;;;;;;4885777;29;20044;-73
2023/12/11 04:52:56;;;;;;;35.95;7.78;;;;;;;;;;4884638;29;20075;-73
2023/12/11 04:55:23;;;;;;;34.40;7.82;;;;;;;;;;4885456;29;20052;-72
2023/12/11 04:57:52;;;;;;;34.67;7.38;;;;;;;;;;4886862;29;20063;-72
2023/12/11 05:00:18;;;;;;;38.05;7.18;;;;;;;;;;4885279;29;20062;-73
2023/12/11 05:02:44;;;;;;;37.97;8.05;;;;;;;;;;4885229;29;20493;-72
2023/12/11 05:05:10;;;;;;;26.20;7.05;;;;;;;;;;4891237;29;20564;-73
2023/12/11 05:07:36;;;;;;;30.15;6.60;;;;;;;;;;4899199;29;20473;-73
2023/12/11 05:10:03;;;;;;;36.95;8.48;;;;;;;;;;4886907;29;20048;-73
2023/12/11 05:12:29;;;;;;;34.22;8.30;;;;;;;;;;4906551;29;20053;-72
2023/12/11 05:14:55;;;;;;;36.45;7.38;;;;;;;;;;4898470;29;20041;-73
2023/12/11 05:17:21;;;;;;;34.78;8.13;;;;;;;;;;4897896;29;20060;-73
2023/12/11 05:19:47;;;;;;;32.75;6.82;;;;;;;;;;4894155;29;20056;-73
2023/12/11 05:22:13;;;;;;;31.92;7.40;;;;;;;;;;4888822;29;20052;-73
2023/12/11 05:24:39;;;;;;;45.72;7.53;;;;;;;;;;4903841;29;20131;-73
2023/12/11 05:27:05;;;;;;;32.67;6.85;;;;;;;;;;4895856;29;20183;-72
2023/12/11 05:29:31;;;;;;;35.65;7.95;;;;;;;;;;4901234;29;20128;-72
2023/12/11 05:31:57;;;;;;;41.15;8.02;;;;;;;;;;4889548;29;20060;-72
2023/12/11 05:34:23;;;;;;;38.92;7.00;;;;;;;;;;4889301;29;20056;-72
2023/12/11 05:36:49;;;;;;;47.50;8.43;;;;;;;;;;4900701;29;20049;-73
2023/12/11 05:39:15;;;;;;;26.33;5.97;;;;;;;;;;4894897;29;20052;-72
2023/12/11 05:41:41;;;;;;;40.40;7.43;;;;;;;;;;4901124;29;20040;-72
2023/12/11 05:44:08;;;;;;;48.03;8.68;;;;;;;;;;4882211;29;20053;-73
2023/12/11 05:46:34;;;;;;;40.90;7.53;;;;;;;;;;4907539;29;20482;-73
2023/12/11 05:49:05;;;;;;;31.50;6.53;;;;;;;;;;4886594;29;20056;-73
2023/12/11 05:51:31;;;;;;;30.75;6.85;;;;;;;;;;4899256;29;20053;-73
2023/12/11 05:53:58;;;;;;;29.55;6.40;;;;;;;;;;4896220;29;20047;-73
2023/12/11 05:56:24;;;;;;;37.05;6.93;;;;;;;;;;4886834;29;20070;-73
2023/12/11 05:58:51;;;;;;;30.90;7.18;;;;;;;;;;4901044;29;20123;-73
2023/12/11 06:01:17;;;;;;;33.15;6.68;;;;;;;;;;4911549;29;20071;-73
2023/12/11 06:03:44;;;;;;;34.42;6.88;;;;;;;;;;4895285;29;20048;-73
2023/12/11 06:06:16;;;;;;;41.30;7.80;;;;;;;;;;4895797;29;20172;-73
2023/12/11 06:08:42;;;;;;;26.23;5.95;;;;;;;;;;4885210;29;20104;-73
2023/12/11 06:11:08;;;;;;;33.38;8.85;;;;;;;;;;4881125;29;20130;-73
2023/12/11 06:13:34;;;;;;;38.35;10.25;;;;;;;;;;4886846;29;20498;-73
2023/12/11 06:16:00;;;;;;;29.50;6.82;;;;;;;;;;4882013;29;20079;-72
2023/12/11 06:18:29;;;;;;;46.85;7.90;;;;;;;;;;4905668;29;20059;-73
2023/12/11 06:20:58;;;;;;;43.58;7.72;;;;;;;;;;4888346;29;20085;-72
2023/12/11 06:23:24;;;;;;;26.02;5.80;;;;;;;;;;4891457;29;20056;-73
2023/12/11 06:25:51;;;;;;;31.77;6.25;;;;;;;;;;4898523;29;20052;-72
2023/12/11 06:28:17;;;;;;;41.55;7.35;;;;;;;;;;4882799;29;20067;-73
2023/12/11 06:30:43;;;;;;;38.55;7.38;;;;;;;;;;4895272;29;20048;-73
2023/12/11 06:33:09;;;;;;;31.38;6.57;;;;;;;;;;4895411;29;20048;-73
2023/12/11 06:35:41;;;;;;;36.85;7.13;;;;;;;;;;4888577;29;20055;-73
2023/12/11 06:38:07;;;;;;;25.52;5.47;;;;;;;;;;4887579;29;20072;-72
2023/12/11 06:40:33;;;;;;;36.55;7.32;;;;;;;;;;4887346;29;20052;-72
2023/12/11 06:42:59;;;;;;;30.80;7.13;;;;;;;;;;4896806;29;20045;-72
2023/12/11 06:45:25;;;;;;;27.95;5.72;;;;;;;;;;4885524;29;20061;-72
2023/12/11 06:47:51;;;;;;;39.60;7.03;;;;;;;;;;4888890;29;20068;-73
2023/12/11 06:50:19;;;;;;;27.90;6.78;;;;;;;;;;4888090;29;20132;-73
2023/12/11 06:52:45;;;;;;;23.88;5.32;;;;;;;;;;4884783;29;20056;-72
2023/12/11 06:55:11;;;;;;;27.15;5.40;;;;;;;;;;4902909;29;20131;-73
2023/12/11 06:57:38;;;;;;;22.90;5.38;;;;;;;;;;4891956;29;20123;-73
2023/12/11 07:00:05;;;;;;;29.30;5.95;;;;;;;;;;4882728;29;20052;-73
2023/12/11 07:02:33;;;;;;;24.13;5.18;;;;;;;;;;4885006;29;20058;-73
2023/12/11 07:04:59;;;;;;;27.88;6.18;;;;;;;;;;4908461;29;20109;-72
2023/12/11 07:07:25;;;;;;;26.42;6.20;;;;;;;;;;4883653;29;20146;-72
2023/12/11 07:09:51;;;;;;;28.05;6.75;;;;;;;;;;4886972;29;20083;-72
2023/12/11 07:12:17;;;;;;;23.40;5.20;;;;;;;;;;4895057;29;20056;-72
2023/12/11 07:14:44;;;;;;;28.58;6.28;;;;;;;;;;4889520;29;20048;-72
2023/12/11 07:17:10;;;;;;;36.22;6.55;;;;;;;;;;4887313;29;20052;-73
2023/12/11 07:19:36;;;;;;;26.05;5.97;;;;;;;;;;4887134;29;20055;-72
2023/12/11 07:22:02;;;;;;;27.83;5.60;;;;;;;;;;4898711;29;20467;-73
2023/12/11 07:24:28;;;;;;;23.30;5.47;;;;;;;;;;4884335;29;21151;-73
2023/12/11 07:26:55;;;;;;;31.55;5.80;;;;;;;;;;4905965;29;20044;-72
2023/12/11 07:29:21;;;;;;;30.88;6.00;;;;;;;;;;4887885;29;20048;-73
2023/12/11 07:31:47;;;;;;;32.47;6.65;;;;;;;;;;4886545;29;20051;-73
2023/12/11 07:34:16;;;;;;;31.40;6.45;;;;;;;;;;4902021;29;20044;-73
2023/12/11 07:36:42;;;;;;;32.60;6.95;;;;;;;;;;4895194;29;20048;-73
2023/12/11 07:39:09;;;;;;;33.90;7.30;;;;;;;;;;4887655;29;20051;-72
2023/12/11 07:41:35;;;;;;;30.17;5.20;;;;;;;;;;4885987;29;20065;-73
2023/12/11 07:44:01;;;;;;;31.10;6.65;;;;;;;;;;4889635;29;20056;-73
2023/12/11 07:46:27;;;;;;;43.67;6.20;;;;;;;;;;4893548;29;20182;-73
2023/12/11 07:48:54;;;;;;;35.45;7.35;;;;;;;;;;4892283;29;20493;-73
2023/12/11 07:51:20;;;;;;;20.42;5.55;;;;;;;;;;4894374;29;20138;-73
2023/12/11 07:53:47;;;;;;;27.83;6.55;;;;;;;;;;4910108;29;20442;-73
2023/12/11 07:56:23;;;;;;;35.47;6.47;;;;;;;;;;4882410;29;20087;-73
2023/12/11 07:58:52;;;;;;;32.28;6.32;;;;;;;;;;4896220;29;20063;-72
2023/12/11 08:01:18;;;;;;;31.60;6.07;;;;;;;;;;4897358;29;20052;-72
2023/12/11 08:03:45;;;;;;;26.90;6.38;;;;;;;;;;4895284;29;20048;-72
2023/12/11 08:06:11;;;;;;;27.08;5.90;;;;;;;;;;4907958;29;20127;-72
2023/12/11 08:08:43;;;;;;;20.98;4.68;;;;;;;;;;4894851;29;20311;-73
2023/12/11 08:11:19;;;;;;;31.80;5.38;;;;;;;;;;4895764;29;20497;-73
2023/12/11 08:13:48;;;;;;;22.33;4.68;;;;;;;;;;4895672;29;20156;-73
2023/12/11 08:16:15;;;;;;;15.85;4.05;;;;;;;;;;4884212;29;20131;-72
2023/12/11 08:18:42;;;;;;;23.83;4.80;;;;;;;;;;4893693;29;20051;-73
2023/12/11 08:21:08;;;;;;;20.33;4.95;;;;;;;;;;4884555;29;20052;-73
2023/12/11 08:23:34;;;;;;;14.88;4.43;;;;;;;;;;4890180;29;20067;-73
2023/12/11 08:26:00;;;;;;;19.10;4.47;;;;;;;;;;4888131;29;20048;-73
2023/12/11 08:28:26;;;;;;;26.05;5.50;;;;;;;;;;4911936;29;20048;-72
2023/12/11 08:30:54;;;;;;;19.40;4.68;;;;;;;;;;4905830;29;20157;-73
2023/12/11 08:33:20;;;;;;;15.52;3.78;;;;;;;;;;4888935;29;20687;-73
2023/12/11 08:35:46;;;;;;;23.17;4.93;;;;;;;;;;4891675;29;20052;-73
2023/12/11 08:38:14;;;;;;;19.20;5.18;;;;;;;;;;4912662;29;20043;-73
2023/12/11 08:40:43;;;;;;;23.95;4.85;;;;;;;;;;4909334;29;20630;-73
2023/12/11 08:43:12;;;;;;;17.88;4.22;;;;;;;;;;4905028;29;20524;-72
2023/12/11 08:45:38;;;;;;;28.48;6.95;;;;;;;;;;4905073;29;20056;-72
2023/12/11 08:48:04;;;;;;;29.48;5.15;;;;;;;;;;4881598;29;20503;-72
2023/12/11 08:50:30;;;;;;;19.60;5.00;;;;;;;;;;4891009;29;20064;-73
2023/12/11 08:52:56;;;;;;;18.75;4.80;;;;;;;;;;4904417;29;20056;-73
2023/12/11 08:55:22;;;;;;;16.73;4.10;;;;;;;;;;4892447;29;20056;-73
2023/12/11 08:57:48;;;;;;;20.35;4.90;;;;;;;;;;4914381;29;20588;-72
2023/12/11 09:00:15;;;;;;;29.15;4.15;;;;;;;;;;4889833;29;20044;-75
2023/12/11 09:02:41;;;;;;;22.10;4.85;;;;;;;;;;4891628;29;20044;-73
2023/12/11 09:05:14;;;;;;;23.38;4.88;;;;;;;;;;4903219;29;20040;-73
2023/12/11 09:07:40;;;;;;;29.40;4.70;;;;;;;;;;4903991;29;20060;-72
2023/12/11 09:10:08;;;;;;;22.88;5.03;;;;;;;;;;4901378;29;20080;-73
2023/12/11 09:12:34;;;;;;;30.10;5.72;;;;;;;;;;4892923;29;20093;-73
2023/12/11 09:15:00;;;;;;;31.13;6.43;;;;;;;;;;4890871;29;20041;-73
2023/12/11 09:17:27;;;;;;;24.67;5.20;;;;;;;;;;4898631;29;20048;-72
2023/12/11 09:19:53;;;;;;;20.77;5.00;;;;;;;;;;4891987;29;20366;-72
2023/12/11 09:22:19;;;;;;;26.73;5.50;;;;;;;;;;4888368;29;20099;-72
2023/12/11 09:24:48;;;;;;;29.40;5.80;;;;;;;;;;4886723;29;20048;-72
2023/12/11 09:27:14;;;;;;;23.58;5.85;;;;;;;;;;4896451;29;20060;-72
2023/12/11 09:29:43;;;;;;;18.20;3.78;;;;;;;;;;4886005;29;20132;-72
2023/12/11 09:32:09;;;;;;;16.63;4.20;;;;;;;;;;4897019;29;20044;-72
2023/12/11 09:34:35;;;;;;;18.95;4.53;;;;;;;;;;4902966;29;20051;-72
2023/12/11 09:37:01;;;;;;;17.17;4.40;;;;;;;;;;4888097;29;20127;-72
2023/12/11 09:39:29;;;;;;;22.02;5.10;;;;;;;;;;4899162;29;20056;-72
2023/12/11 09:41:55;;;;;;;23.10;4.20;;;;;;;;;;4896196;29;20088;-73
2023/12/11 09:44:21;;;;;;;26.65;5.88;;;;;;;;;;4904571;29;20401;-72
2023/12/11 09:46:53;;;;;;;24.95;5.47;;;;;;;;;;4892063;29;20525;-72
2023/12/11 09:49:19;;;;;;;31.17;6.03;;;;;;;;;;4890462;29;20118;-73
2023/12/11 09:51:45;;;;;;;24.20;4.97;;;;;;;;;;4891371;29;20044;-73
2023/12/11 09:54:12;;;;;;;19.90;5.88;;;;;;;;;;4891145;29;20059;-72
2023/12/11 09:56:39;;;;;;;24.52;5.38;;;;;;;;;;4902227;29;20036;-73
2023/12/11 09:59:09;;;;;;;27.00;5.65;;;;;;;;;;4902725;29;20113;-72
2023/12/11 10:01:35;;;;;;;23.83;4.68;;;;;;;;;;4889939;29;20096;-73
2023/12/11 10:04:01;;;;;;;19.98;4.65;;;;;;;;;;4902815;29;20049;-72
2023/12/11 10:06:30;;;;;;;15.60;3.58;;;;;;;;;;4896330;29;20056;-72
2023/12/11 10:08:56;;;;;;;20.90;4.10;;;;;;;;;;4883678;29;20044;-72
2023/12/11 10:11:22;;;;;;;18.77;3.83;;;;;;;;;;4889386;29;20181;-72
2023/12/11 10:13:49;;;;;;;17.55;3.83;;;;;;;;;;4891220;29;20373;-73
2023/12/11 10:16:29;;;;;;;24.27;4.40;;;;;;;;;;4891442;29;20056;-72
2023/12/11 10:18:56;;;;;;;20.33;4.85;;;;;;;;;;4883304;29;20491;-72
2023/12/11 10:21:25;;;;;;;15.23;4.00;;;;;;;;;;4915506;29;20044;-72
2023/12/11 10:24:09;;;;;;;20.00;4.90;;;;;;;;;;4894681;29;20448;-72
2023/12/11 10:26:37;;;;;;;26.30;5.30;;;;;;;;;;4888369;29;20052;-72
2023/12/11 10:29:23;;;;;;;25.10;6.05;;;;;;;;;;4882993;29;20056;-72
2023/12/11 10:31:52;;;;;;;22.77;5.28;;;;;;;;;;4888348;29;20060;-72
2023/12/11 10:34:18;;;;;;;20.13;4.60;;;;;;;;;;4907158;29;20131;-72
2023/12/11 10:36:49;;;;;;;25.38;5.55;;;;;;;;;;4890639;29;20480;-72
2023/12/11 10:39:15;;;;;;;23.52;5.22;;;;;;;;;;4891019;29;20424;-72
2023/12/11 10:41:44;;;;;;;16.02;5.00;;;;;;;;;;4889007;29;20053;-72
2023/12/11 10:44:20;;;;;;;26.45;5.25;;;;;;;;;;4895843;29;20052;-72
2023/12/11 10:46:46;;;;;;;23.13;5.65;;;;;;;;;;4897596;29;20088;-72
2023/12/11 10:49:12;;;;;;;28.30;6.95;;;;;;;;;;4886863;29;20044;-72
2023/12/11 10:51:39;;;;;;;22.60;6.20;;;;;;;;;;4903368;29;20068;-72
2023/12/11 10:54:05;;;;;;;26.35;5.80;;;;;;;;;;4891912;29;20048;-72
2023/12/11 10:56:31;;;;;;;17.65;4.15;;;;;;;;;;4900970;29;20735;-72
2023/12/11 10:58:58;;;;;;;13.00;3.38;;;;;;;;;;4893514;29;20068;-72
2023/12/11 11:01:25;;;;;;;15.88;4.55;;;;;;;;;;4884686;29;20053;-72
2023/12/11 11:03:51;;;;;;;16.20;4.53;;;;;;;;;;4899949;29;20117;-72
2023/12/11 11:06:22;;;;;;;25.55;4.72;;;;;;;;;;4902447;29;20557;-72
2023/12/11 11:08:59;;;;;;;17.77;3.85;;;;;;;;;;4883860;29;20085;-72
2023/12/11 11:11:32;;;;;;;18.85;5.07;;;;;;;;;;4900877;29;20072;-73
2023/12/11 11:14:16;;;;;;;20.27;4.40;;;;;;;;;;4893882;29;20213;-72
2023/12/11 11:16:55;;;;;;;18.95;4.38;;;;;;;;;;4893816;29;20147;-72
2023/12/11 11:19:21;;;;;;;15.27;3.63;;;;;;;;;;4908862;29;20051;-72
2023/12/11 11:22:08;;;;;;;19.38;4.50;;;;;;;;;;4896307;29;20458;-72
2023/12/11 11:24:35;;;;;;;13.23;3.05;;;;;;;;;;4890798;29;20052;-72
2023/12/11 11:27:24;;;;;;;17.05;3.58;;;;;;;;;;4890114;29;20051;-72
2023/12/11 11:29:53;;;;;;;15.57;3.80;;;;;;;;;;4888856;29;20052;-73
2023/12/11 11:32:19;;;;;;;13.60;3.58;;;;;;;;;;4885499;29;20180;-72
2023/12/11 11:34:46;;;;;;;10.77;3.17;;;;;;;;;;4892883;29;20079;-72
2023/12/11 11:37:20;;;;;;;14.32;2.80;;;;;;;;;;4892726;29;20091;-72
2023/12/11 11:39:57;;;;;;;8.55;2.72;;;;;;;;;;4892355;29;20052;-72
2023/12/11 11:42:23;;;;;;;11.93;3.28;;;;;;;;;;4890374;29;20075;-72
2023/12/11 11:44:57;;;;;;;8.57;2.40;;;;;;;;;;4900820;29;20465;-72
2023/12/11 11:47:23;;;;;;;11.75;2.67;;;;;;;;;;4892258;29;20489;-72
2023/12/11 11:49:49;;;;;;;6.97;2.20;;;;;;;;;;4894949;29;20928;-72
2023/12/11 11:52:15;;;;;;;6.40;2.47;;;;;;;;;;4902805;29;20052;-72
2023/12/11 11:54:41;;;;;;;9.23;2.65;;;;;;;;;;4883708;29;20049;-72
2023/12/11 11:57:07;;;;;;;10.88;2.65;;;;;;;;;;4889425;29;20422;-72
2023/12/11 11:59:43;;;;;;;14.75;3.17;;;;;;;;;;4883844;29;20076;-72
2023/12/11 12:02:09;;;;;;;9.98;2.60;;;;;;;;;;4890973;29;20558;-72
2023/12/11 12:04:35;;;;;;;15.05;2.63;;;;;;;;;;4885596;29;20078;-72
2023/12/11 12:07:02;;;;;;;13.18;3.05;;;;;;;;;;4894669;29;20036;-72
2023/12/11 12:09:29;;;;;;;6.00;2.58;;;;;;;;;;4883581;29;20517;-72
2023/12/11 12:11:55;;;;;;;6.82;2.50;;;;;;;;;;4906133;29;20048;-72
2023/12/11 12:14:21;;;;;;;9.60;2.75;;;;;;;;;;4895344;29;20147;-72
2023/12/11 12:16:48;;;;;;;10.52;2.78;;;;;;;;;;4886784;29;20124;-72
2023/12/11 12:19:15;;;;;;;6.80;2.15;;;;;;;;;;4890221;29;20047;-72
2023/12/11 12:24:39;;;;;;;10.25;2.53;;;;;;;;;;4873634;23;20053;-73
2023/12/11 12:27:09;;;;;;;6.78;2.55;;;;;;;;;;4863658;29;20494;-72
2023/12/11 12:29:35;;;;;;;10.57;3.60;;;;;;;;;;4876720;29;20128;-72
2023/12/11 12:32:02;;;;;;;10.07;2.47;;;;;;;;;;4870260;29;20396;-72
2023/12/11 12:34:28;;;;;;;9.52;2.50;;;;;;;;;;4867078;29;20049;-72
2023/12/11 12:36:55;;;;;;;10.70;2.70;;;;;;;;;;4856340;29;20053;-72
2023/12/11 12:39:21;;;;;;;12.35;3.40;;;;;;;;;;4860372;29;20116;-72
2023/12/11 12:41:53;;;;;;;11.35;2.72;;;;;;;;;;4872832;29;20469;-72
2023/12/11 12:44:19;;;;;;;6.13;2.40;;;;;;;;;;4877125;29;20406;-72
2023/12/11 12:46:46;;;;;;;9.65;2.83;;;;;;;;;;4862787;29;20059;-72
2023/12/11 12:49:15;;;;;;;6.82;2.30;;;;;;;;;;4869197;29;20104;-72
2023/12/11 12:51:48;;;;;;;8.82;2.70;;;;;;;;;;4864596;29;20120;-74
2023/12/11 12:54:15;;;;;;;7.10;2.53;;;;;;;;;;4867996;29;20041;-73
2023/12/11 12:56:41;;;;;;;11.00;2.50;;;;;;;;;;4865638;29;20492;-73
2023/12/11 12:59:07;;;;;;;11.98;2.60;;;;;;;;;;4862032;29;20060;-73
2023/12/11 13:01:36;;;;;;;6.00;2.30;;;;;;;;;;4866048;29;20060;-73
2023/12/11 13:04:03;;;;;;;10.45;2.80;;;;;;;;;;4858949;29;20494;-73
2023/12/11 13:06:29;;;;;;;8.20;2.58;;;;;;;;;;4866420;29;20056;-73
2023/12/11 13:08:55;;;;;;;7.13;2.47;;;;;;;;;;4864072;29;20386;-73
2023/12/11 13:11:21;;;;;;;11.73;2.65;;;;;;;;;;4867550;29;20053;-74
2023/12/11 13:13:57;;;;;;;6.35;2.88;;;;;;;;;;4860229;29;20048;-74
2023/12/11 13:16:23;;;;;;;5.65;2.28;;;;;;;;;;4874317;29;20525;-74
2023/12/11 13:18:52;;;;;;;10.18;2.67;;;;;;;;;;4863391;29;20052;-74
2023/12/11 13:21:18;;;;;;;5.75;2.55;;;;;;;;;;4859430;29;20045;-74
2023/12/11 13:23:44;;;;;;;6.97;2.70;;;;;;;;;;4865792;29;20056;-74
2023/12/11 13:26:10;;;;;;;7.75;2.90;;;;;;;;;;4870494;29;20383;-74
2023/12/11 13:28:36;;;;;;;7.88;2.72;;;;;;;;;;4874650;29;20053;-74
2023/12/11 13:31:03;;;;;;;12.15;2.72;;;;;;;;;;4869597;29;20132;-74
2023/12/11 13:33:30;;;;;;;5.10;2.30;;;;;;;;;;4857822;29;20512;-74
2023/12/11 13:35:57;;;;;;;9.02;3.05;;;;;;;;;;4864080;29;20041;-74
2023/12/11 13:38:23;;;;;;;5.97;2.03;;;;;;;;;;4870077;29;20497;-74
2023/12/11 13:40:49;;;;;;;6.30;2.25;;;;;;;;;;4868557;29;20072;-74
2023/12/11 13:43:18;;;;;;;8.32;2.15;;;;;;;;;;4873058;29;20471;-74
2023/12/11 13:45:44;;;;;;;6.28;3.08;;;;;;;;;;4860495;29;20124;-74
2023/12/11 13:48:10;;;;;;;4.90;2.20;;;;;;;;;;4865119;29;20417;-74
2023/12/11 13:50:36;;;;;;;8.10;2.75;;;;;;;;;;4869869;29;20045;-73
2023/12/11 13:53:03;;;;;;;8.68;2.97;;;;;;;;;;4865555;29;20490;-73
2023/12/11 13:55:29;;;;;;;11.13;3.03;;;;;;;;;;4858396;29;20671;-74
2023/12/11 13:57:55;;;;;;;8.30;2.83;;;;;;;;;;4863227;29;20482;-74
2023/12/11 14:00:21;;;;;;;7.65;2.83;;;;;;;;;;4879114;29;20045;-73
2023/12/11 14:02:47;;;;;;;10.73;2.95;;;;;;;;;;4880883;29;20381;-74
2023/12/11 14:05:14;;;;;;;10.60;3.00;;;;;;;;;;4865031;29;20057;-74
2023/12/11 14:07:43;;;;;;;8.38;2.72;;;;;;;;;;4870847;29;20141;-75
2023/12/11 14:10:09;;;;;;;10.55;2.97;;;;;;;;;;4859689;29;20140;-75
2023/12/11 14:12:37;;;;;;;8.90;2.92;;;;;;;;;;4852280;29;20049;-73
2023/12/11 14:15:04;;;;;;;11.25;3.20;;;;;;;;;;4859427;29;20052;-75
2023/12/11 14:17:31;;;;;;;5.13;2.42;;;;;;;;;;4859355;29;20418;-74
2023/12/11 14:19:57;;;;;;;8.32;2.53;;;;;;;;;;4859805;29;20044;-73
2023/12/11 14:22:23;;;;;;;9.50;2.97;;;;;;;;;;4872362;29;20049;-74
2023/12/11 14:24:49;;;;;;;5.90;2.70;;;;;;;;;;4866643;29;20053;-73
2023/12/11 14:27:15;;;;;;;8.88;2.00;;;;;;;;;;4871486;29;20409;-73
2023/12/11 14:29:41;;;;;;;8.55;2.72;;;;;;;;;;4863612;29;20049;-73
2023/12/11 14:32:08;;;;;;;8.15;2.53;;;;;;;;;;4861096;29;20048;-73
2023/12/11 14:34:34;;;;;;;11.60;3.70;;;;;;;;;;4860119;29;20049;-73